Terminal Aerodrome Forecast
Issued by NWS

Home | Current Version | Previous Version | Text Only | Print | Product List | Glossary On
Versions: 1 2 3 4 5 6 7 8 9 10 11 12 13
615
FTUS43 KSGF 191120
TAFJLN
TAF
KJLN 191120Z 1912/2012 20010KT P6SM SKC WS020/23040KT
     FM191500 20011G22KT P6SM SKC
     FM192300 19010KT P6SM SKC WS020/20040KT
     FM200500 19012G20KT P6SM SCT050 WS020/21045KT
     FM200800 20011G20KT 3SM BR BKN040 WS020/21045KT=

USA.gov is the U.S. government's official web portal to all federal, state and local government web resources and services.